sensor_id;sensor_type;location;lat;lon;timestamp;P1;durP1;ratioP1;P2;durP2;ratioP2
2338;SDS011;1180;51.438;6.978;2022-08-25T00:01:25;4.60;;;4.10;;
2338;SDS011;1180;51.438;6.978;2022-08-25T00:03:54;3.83;;;3.43;;
2338;SDS011;1180;51.438;6.978;2022-08-25T00:06:20;6.30;;;3.50;;
2338;SDS011;1180;51.438;6.978;2022-08-25T00:08:46;6.50;;;2.60;;
2338;SDS011;1180;51.438;6.978;2022-08-25T00:11:14;5.10;;;2.97;;
2338;SDS011;1180;51.438;6.978;2022-08-25T00:13:43;3.53;;;3.23;;
2338;SDS011;1180;51.438;6.978;2022-08-25T00:16:12;3.60;;;3.30;;
2338;SDS011;1180;51.438;6.978;2022-08-25T00:18:41;4.03;;;3.00;;
2338;SDS011;1180;51.438;6.978;2022-08-25T00:21:09;3.33;;;2.97;;
2338;SDS011;1180;51.438;6.978;2022-08-25T00:23:36;2.70;;;2.50;;
2338;SDS011;1180;51.438;6.978;2022-08-25T00:26:01;3.47;;;3.17;;
2338;SDS011;1180;51.438;6.978;2022-08-25T00:28:27;6.50;;;2.63;;
2338;SDS011;1180;51.438;6.978;2022-08-25T00:30:54;3.90;;;3.50;;
2338;SDS011;1180;51.438;6.978;2022-08-25T00:33:19;4.63;;;2.70;;
2338;SDS011;1180;51.438;6.978;2022-08-25T00:35:45;3.10;;;2.40;;
2338;SDS011;1180;51.438;6.978;2022-08-25T00:38:11;3.80;;;2.77;;
2338;SDS011;1180;51.438;6.978;2022-08-25T00:40:38;4.03;;;2.50;;
2338;SDS011;1180;51.438;6.978;2022-08-25T00:43:05;2.50;;;2.30;;
2338;SDS011;1180;51.438;6.978;2022-08-25T00:45:32;2.80;;;2.60;;
2338;SDS011;1180;51.438;6.978;2022-08-25T00:47:58;2.63;;;2.43;;
2338;SDS011;1180;51.438;6.978;2022-08-25T00:50:25;3.27;;;2.63;;
2338;SDS011;1180;51.438;6.978;2022-08-25T00:52:52;3.13;;;2.93;;
2338;SDS011;1180;51.438;6.978;2022-08-25T00:55:24;2.80;;;2.60;;
2338;SDS011;1180;51.438;6.978;2022-08-25T00:58:04;2.80;;;2.60;;
2338;SDS011;1180;51.438;6.978;2022-08-25T01:00:38;3.23;;;2.93;;
2338;SDS011;1180;51.438;6.978;2022-08-25T01:03:06;2.70;;;2.50;;
2338;SDS011;1180;51.438;6.978;2022-08-25T01:05:32;3.77;;;2.30;;
2338;SDS011;1180;51.438;6.978;2022-08-25T01:07:58;2.57;;;2.37;;
2338;SDS011;1180;51.438;6.978;2022-08-25T01:10:26;4.27;;;3.37;;
2338;SDS011;1180;51.438;6.978;2022-08-25T01:12:54;2.60;;;2.40;;
2338;SDS011;1180;51.438;6.978;2022-08-25T01:15:25;3.70;;;2.47;;
2338;SDS011;1180;51.438;6.978;2022-08-25T01:17:52;2.80;;;2.60;;
2338;SDS011;1180;51.438;6.978;2022-08-25T01:20:20;2.50;;;2.30;;
2338;SDS011;1180;51.438;6.978;2022-08-25T01:22:49;3.20;;;2.57;;
2338;SDS011;1180;51.438;6.978;2022-08-25T01:27:53;3.13;;;2.83;;
2338;SDS011;1180;51.438;6.978;2022-08-25T01:30:20;2.97;;;2.77;;
2338;SDS011;1180;51.438;6.978;2022-08-25T01:32:45;2.80;;;2.60;;
2338;SDS011;1180;51.438;6.978;2022-08-25T01:35:13;3.40;;;2.67;;
2338;SDS011;1180;51.438;6.978;2022-08-25T01:37:39;3.10;;;2.67;;
2338;SDS011;1180;51.438;6.978;2022-08-25T01:40:05;3.33;;;2.10;;
2338;SDS011;1180;51.438;6.978;2022-08-25T01:42:52;2.40;;;2.20;;
2338;SDS011;1180;51.438;6.978;2022-08-25T01:45:43;3.07;;;2.87;;
2338;SDS011;1180;51.438;6.978;2022-08-25T01:48:13;2.43;;;2.23;;
2338;SDS011;1180;51.438;6.978;2022-08-25T01:50:39;2.87;;;2.00;;
2338;SDS011;1180;51.438;6.978;2022-08-25T01:53:07;3.27;;;2.93;;
2338;SDS011;1180;51.438;6.978;2022-08-25T01:55:53;3.73;;;2.90;;
2338;SDS011;1180;51.438;6.978;2022-08-25T01:58:30;3.47;;;2.83;;
2338;SDS011;1180;51.438;6.978;2022-08-25T02:00:59;4.27;;;2.80;;
2338;SDS011;1180;51.438;6.978;2022-08-25T02:03:26;3.73;;;2.53;;
2338;SDS011;1180;51.438;6.978;2022-08-25T02:05:53;3.23;;;2.60;;
2338;SDS011;1180;51.438;6.978;2022-08-25T02:08:19;2.40;;;2.20;;
2338;SDS011;1180;51.438;6.978;2022-08-25T02:10:47;2.60;;;2.40;;
2338;SDS011;1180;51.438;6.978;2022-08-25T02:13:13;3.17;;;2.87;;
2338;SDS011;1180;51.438;6.978;2022-08-25T02:15:39;2.63;;;2.40;;
2338;SDS011;1180;51.438;6.978;2022-08-25T02:18:07;4.20;;;2.73;;
2338;SDS011;1180;51.438;6.978;2022-08-25T02:20:32;3.70;;;3.30;;
2338;SDS011;1180;51.438;6.978;2022-08-25T02:22:59;3.87;;;3.07;;
2338;SDS011;1180;51.438;6.978;2022-08-25T02:25:25;3.43;;;3.17;;
2338;SDS011;1180;51.438;6.978;2022-08-25T02:27:50;3.17;;;2.87;;
2338;SDS011;1180;51.438;6.978;2022-08-25T02:30:15;4.00;;;2.87;;
2338;SDS011;1180;51.438;6.978;2022-08-25T02:32:41;3.30;;;3.00;;
2338;SDS011;1180;51.438;6.978;2022-08-25T02:35:07;6.97;;;3.20;;
2338;SDS011;1180;51.438;6.978;2022-08-25T02:37:33;6.03;;;3.30;;
2338;SDS011;1180;51.438;6.978;2022-08-25T02:39:59;3.20;;;2.90;;
2338;SDS011;1180;51.438;6.978;2022-08-25T02:42:25;2.93;;;2.73;;
2338;SDS011;1180;51.438;6.978;2022-08-25T02:44:52;2.53;;;2.43;;
2338;SDS011;1180;51.438;6.978;2022-08-25T02:47:17;4.80;;;3.30;;
2338;SDS011;1180;51.438;6.978;2022-08-25T02:49:43;4.20;;;3.20;;
2338;SDS011;1180;51.438;6.978;2022-08-25T02:52:09;3.10;;;2.80;;
2338;SDS011;1180;51.438;6.978;2022-08-25T02:54:34;4.20;;;3.07;;
2338;SDS011;1180;51.438;6.978;2022-08-25T02:57:00;4.10;;;3.73;;
2338;SDS011;1180;51.438;6.978;2022-08-25T02:59:25;4.17;;;3.60;;
2338;SDS011;1180;51.438;6.978;2022-08-25T03:01:51;4.33;;;4.00;;
2338;SDS011;1180;51.438;6.978;2022-08-25T03:04:16;3.83;;;3.30;;
2338;SDS011;1180;51.438;6.978;2022-08-25T03:06:42;4.13;;;3.73;;
2338;SDS011;1180;51.438;6.978;2022-08-25T03:09:08;6.93;;;3.80;;
2338;SDS011;1180;51.438;6.978;2022-08-25T03:11:33;3.90;;;3.53;;
2338;SDS011;1180;51.438;6.978;2022-08-25T03:13:59;4.73;;;3.20;;
2338;SDS011;1180;51.438;6.978;2022-08-25T03:16:24;4.00;;;3.60;;
2338;SDS011;1180;51.438;6.978;2022-08-25T03:18:50;5.43;;;4.10;;
2338;SDS011;1180;51.438;6.978;2022-08-25T03:21:15;4.67;;;4.27;;
2338;SDS011;1180;51.438;6.978;2022-08-25T03:23:40;5.40;;;4.20;;
2338;SDS011;1180;51.438;6.978;2022-08-25T03:26:07;5.33;;;4.30;;
2338;SDS011;1180;51.438;6.978;2022-08-25T03:28:51;5.17;;;3.53;;
2338;SDS011;1180;51.438;6.978;2022-08-25T03:31:19;10.10;;;3.80;;
2338;SDS011;1180;51.438;6.978;2022-08-25T03:33:45;3.80;;;3.50;;
2338;SDS011;1180;51.438;6.978;2022-08-25T03:36:10;4.57;;;4.10;;
2338;SDS011;1180;51.438;6.978;2022-08-25T03:38:36;3.83;;;3.53;;
2338;SDS011;1180;51.438;6.978;2022-08-25T03:41:09;6.73;;;4.97;;
2338;SDS011;1180;51.438;6.978;2022-08-25T03:43:42;3.73;;;3.43;;
2338;SDS011;1180;51.438;6.978;2022-08-25T03:46:08;4.30;;;3.90;;
2338;SDS011;1180;51.438;6.978;2022-08-25T03:48:40;4.40;;;4.00;;
2338;SDS011;1180;51.438;6.978;2022-08-25T03:51:05;5.30;;;4.73;;
2338;SDS011;1180;51.438;6.978;2022-08-25T03:53:31;5.83;;;5.23;;
2338;SDS011;1180;51.438;6.978;2022-08-25T03:55:56;6.57;;;5.97;;
2338;SDS011;1180;51.438;6.978;2022-08-25T03:58:21;4.90;;;4.40;;
2338;SDS011;1180;51.438;6.978;2022-08-25T04:00:47;5.23;;;4.47;;
2338;SDS011;1180;51.438;6.978;2022-08-25T04:03:12;5.13;;;4.03;;
2338;SDS011;1180;51.438;6.978;2022-08-25T04:05:38;4.53;;;4.13;;
2338;SDS011;1180;51.438;6.978;2022-08-25T04:08:03;7.57;;;5.00;;
2338;SDS011;1180;51.438;6.978;2022-08-25T04:10:30;5.70;;;4.30;;
2338;SDS011;1180;51.438;6.978;2022-08-25T04:12:56;6.30;;;4.73;;
2338;SDS011;1180;51.438;6.978;2022-08-25T04:15:22;4.37;;;3.77;;
2338;SDS011;1180;51.438;6.978;2022-08-25T04:17:49;5.50;;;5.10;;
2338;SDS011;1180;51.438;6.978;2022-08-25T04:20:14;8.17;;;5.17;;
2338;SDS011;1180;51.438;6.978;2022-08-25T04:22:40;5.00;;;4.50;;
2338;SDS011;1180;51.438;6.978;2022-08-25T04:25:06;6.27;;;4.30;;
2338;SDS011;1180;51.438;6.978;2022-08-25T04:27:32;4.60;;;4.20;;
2338;SDS011;1180;51.438;6.978;2022-08-25T04:29:57;5.33;;;4.70;;
2338;SDS011;1180;51.438;6.978;2022-08-25T04:32:23;3.90;;;3.60;;
2338;SDS011;1180;51.438;6.978;2022-08-25T04:34:48;5.00;;;4.57;;
2338;SDS011;1180;51.438;6.978;2022-08-25T04:37:14;6.87;;;3.90;;
2338;SDS011;1180;51.438;6.978;2022-08-25T04:39:39;11.23;;;4.60;;
2338;SDS011;1180;51.438;6.978;2022-08-25T04:42:05;5.00;;;4.50;;
2338;SDS011;1180;51.438;6.978;2022-08-25T04:44:30;4.37;;;4.03;;
2338;SDS011;1180;51.438;6.978;2022-08-25T04:46:56;6.13;;;4.87;;
2338;SDS011;1180;51.438;6.978;2022-08-25T04:49:22;5.70;;;4.40;;
2338;SDS011;1180;51.438;6.978;2022-08-25T04:51:48;5.30;;;4.80;;
2338;SDS011;1180;51.438;6.978;2022-08-25T04:54:14;4.90;;;4.40;;
2338;SDS011;1180;51.438;6.978;2022-08-25T04:56:47;4.47;;;4.00;;
2338;SDS011;1180;51.438;6.978;2022-08-25T04:59:15;4.80;;;4.40;;
2338;SDS011;1180;51.438;6.978;2022-08-25T05:01:42;4.90;;;4.07;;
2338;SDS011;1180;51.438;6.978;2022-08-25T05:04:11;5.33;;;4.70;;
2338;SDS011;1180;51.438;6.978;2022-08-25T05:06:39;5.20;;;4.70;;
2338;SDS011;1180;51.438;6.978;2022-08-25T05:09:05;8.03;;;4.10;;
2338;SDS011;1180;51.438;6.978;2022-08-25T05:11:31;5.30;;;4.33;;
2338;SDS011;1180;51.438;6.978;2022-08-25T05:13:58;4.93;;;3.83;;
2338;SDS011;1180;51.438;6.978;2022-08-25T05:16:25;4.97;;;3.87;;
2338;SDS011;1180;51.438;6.978;2022-08-25T05:18:51;5.70;;;4.10;;
2338;SDS011;1180;51.438;6.978;2022-08-25T05:21:19;4.53;;;3.77;;
2338;SDS011;1180;51.438;6.978;2022-08-25T05:23:47;6.03;;;3.87;;
2338;SDS011;1180;51.438;6.978;2022-08-25T05:26:14;5.60;;;4.97;;
2338;SDS011;1180;51.438;6.978;2022-08-25T05:28:41;4.67;;;4.27;;
2338;SDS011;1180;51.438;6.978;2022-08-25T05:31:07;5.00;;;4.50;;
2338;SDS011;1180;51.438;6.978;2022-08-25T05:33:34;4.77;;;4.37;;
2338;SDS011;1180;51.438;6.978;2022-08-25T05:36:00;6.60;;;4.53;;
2338;SDS011;1180;51.438;6.978;2022-08-25T05:38:25;7.30;;;4.17;;
2338;SDS011;1180;51.438;6.978;2022-08-25T05:40:52;7.30;;;5.27;;
2338;SDS011;1180;51.438;6.978;2022-08-25T05:43:21;10.73;;;5.33;;
2338;SDS011;1180;51.438;6.978;2022-08-25T05:45:46;5.20;;;4.70;;
2338;SDS011;1180;51.438;6.978;2022-08-25T05:48:12;4.90;;;4.50;;
2338;SDS011;1180;51.438;6.978;2022-08-25T05:50:37;6.00;;;5.03;;
2338;SDS011;1180;51.438;6.978;2022-08-25T05:53:03;8.23;;;6.03;;
2338;SDS011;1180;51.438;6.978;2022-08-25T05:55:28;6.70;;;5.07;;
2338;SDS011;1180;51.438;6.978;2022-08-25T05:57:54;6.30;;;5.73;;
2338;SDS011;1180;51.438;6.978;2022-08-25T06:00:19;5.80;;;4.87;;
2338;SDS011;1180;51.438;6.978;2022-08-25T06:02:45;8.03;;;5.40;;
2338;SDS011;1180;51.438;6.978;2022-08-25T06:05:17;5.87;;;5.37;;
2338;SDS011;1180;51.438;6.978;2022-08-25T06:07:48;5.40;;;4.40;;
2338;SDS011;1180;51.438;6.978;2022-08-25T06:10:15;5.20;;;4.50;;
2338;SDS011;1180;51.438;6.978;2022-08-25T06:12:43;5.47;;;4.60;;
2338;SDS011;1180;51.438;6.978;2022-08-25T06:15:10;5.50;;;4.70;;
2338;SDS011;1180;51.438;6.978;2022-08-25T06:17:40;5.67;;;5.20;;
2338;SDS011;1180;51.438;6.978;2022-08-25T06:20:08;5.63;;;4.50;;
2338;SDS011;1180;51.438;6.978;2022-08-25T06:22:35;6.30;;;4.03;;
2338;SDS011;1180;51.438;6.978;2022-08-25T06:25:02;4.00;;;3.60;;
2338;SDS011;1180;51.438;6.978;2022-08-25T06:27:32;5.47;;;4.97;;
2338;SDS011;1180;51.438;6.978;2022-08-25T06:29:58;6.20;;;4.57;;
2338;SDS011;1180;51.438;6.978;2022-08-25T06:32:29;6.40;;;4.83;;
2338;SDS011;1180;51.438;6.978;2022-08-25T06:34:55;5.70;;;4.17;;
2338;SDS011;1180;51.438;6.978;2022-08-25T06:37:22;8.07;;;5.03;;
2338;SDS011;1180;51.438;6.978;2022-08-25T06:39:47;4.93;;;4.53;;
2338;SDS011;1180;51.438;6.978;2022-08-25T06:42:13;5.07;;;4.67;;
2338;SDS011;1180;51.438;6.978;2022-08-25T06:44:38;7.90;;;5.13;;
2338;SDS011;1180;51.438;6.978;2022-08-25T06:47:05;6.03;;;4.73;;
2338;SDS011;1180;51.438;6.978;2022-08-25T06:49:30;5.83;;;4.60;;
2338;SDS011;1180;51.438;6.978;2022-08-25T06:51:56;5.53;;;4.97;;
2338;SDS011;1180;51.438;6.978;2022-08-25T06:54:21;7.53;;;4.53;;
2338;SDS011;1180;51.438;6.978;2022-08-25T06:56:47;6.70;;;5.13;;
2338;SDS011;1180;51.438;6.978;2022-08-25T06:59:12;6.30;;;4.60;;
2338;SDS011;1180;51.438;6.978;2022-08-25T07:01:38;6.70;;;4.97;;
2338;SDS011;1180;51.438;6.978;2022-08-25T07:04:04;4.80;;;4.30;;
2338;SDS011;1180;51.438;6.978;2022-08-25T07:06:32;6.63;;;4.73;;
2338;SDS011;1180;51.438;6.978;2022-08-25T07:09:00;8.80;;;4.37;;
2338;SDS011;1180;51.438;6.978;2022-08-25T07:11:27;7.40;;;5.60;;
2338;SDS011;1180;51.438;6.978;2022-08-25T07:13:53;9.37;;;5.03;;
2338;SDS011;1180;51.438;6.978;2022-08-25T07:16:19;6.80;;;5.43;;
2338;SDS011;1180;51.438;6.978;2022-08-25T07:18:46;7.37;;;5.73;;
2338;SDS011;1180;51.438;6.978;2022-08-25T07:21:12;5.47;;;5.00;;
2338;SDS011;1180;51.438;6.978;2022-08-25T07:23:39;7.30;;;5.37;;
2338;SDS011;1180;51.438;6.978;2022-08-25T07:26:16;5.17;;;4.67;;
2338;SDS011;1180;51.438;6.978;2022-08-25T07:28:43;5.67;;;5.07;;
2338;SDS011;1180;51.438;6.978;2022-08-25T07:31:09;7.13;;;4.70;;
2338;SDS011;1180;51.438;6.978;2022-08-25T07:33:35;5.37;;;4.87;;
2338;SDS011;1180;51.438;6.978;2022-08-25T07:36:00;8.73;;;5.00;;
2338;SDS011;1180;51.438;6.978;2022-08-25T07:38:26;4.90;;;4.40;;
2338;SDS011;1180;51.438;6.978;2022-08-25T07:40:59;5.30;;;4.80;;
2338;SDS011;1180;51.438;6.978;2022-08-25T07:43:26;6.50;;;5.40;;
2338;SDS011;1180;51.438;6.978;2022-08-25T07:45:52;5.60;;;5.10;;
2338;SDS011;1180;51.438;6.978;2022-08-25T07:48:17;6.57;;;5.30;;
2338;SDS011;1180;51.438;6.978;2022-08-25T07:50:45;6.13;;;4.50;;
2338;SDS011;1180;51.438;6.978;2022-08-25T07:53:12;5.10;;;4.60;;
2338;SDS011;1180;51.438;6.978;2022-08-25T07:55:39;8.00;;;4.90;;
2338;SDS011;1180;51.438;6.978;2022-08-25T07:58:06;6.97;;;5.03;;
2338;SDS011;1180;51.438;6.978;2022-08-25T08:00:34;8.47;;;4.07;;
2338;SDS011;1180;51.438;6.978;2022-08-25T08:03:04;4.93;;;4.37;;
2338;SDS011;1180;51.438;6.978;2022-08-25T08:05:31;5.80;;;5.10;;
2338;SDS011;1180;51.438;6.978;2022-08-25T08:08:00;7.23;;;4.70;;
2338;SDS011;1180;51.438;6.978;2022-08-25T08:10:26;5.90;;;4.80;;
2338;SDS011;1180;51.438;6.978;2022-08-25T08:12:52;5.90;;;5.40;;
2338;SDS011;1180;51.438;6.978;2022-08-25T08:15:18;4.73;;;4.20;;
2338;SDS011;1180;51.438;6.978;2022-08-25T08:17:44;6.40;;;4.77;;
2338;SDS011;1180;51.438;6.978;2022-08-25T08:20:10;6.40;;;5.77;;
2338;SDS011;1180;51.438;6.978;2022-08-25T08:22:37;5.10;;;4.70;;
2338;SDS011;1180;51.438;6.978;2022-08-25T08:25:05;6.67;;;4.43;;
2338;SDS011;1180;51.438;6.978;2022-08-25T08:27:31;7.07;;;4.60;;
2338;SDS011;1180;51.438;6.978;2022-08-25T08:29:57;5.73;;;5.10;;
2338;SDS011;1180;51.438;6.978;2022-08-25T08:32:22;5.50;;;5.00;;
2338;SDS011;1180;51.438;6.978;2022-08-25T08:34:48;5.23;;;4.60;;
2338;SDS011;1180;51.438;6.978;2022-08-25T08:37:13;5.83;;;4.60;;
2338;SDS011;1180;51.438;6.978;2022-08-25T08:39:40;5.03;;;4.50;;
2338;SDS011;1180;51.438;6.978;2022-08-25T08:47:21;6.20;;;5.70;;
2338;SDS011;1180;51.438;6.978;2022-08-25T08:52:45;7.03;;;4.07;;
2338;SDS011;1180;51.438;6.978;2022-08-25T08:55:39;5.83;;;5.20;;
2338;SDS011;1180;51.438;6.978;2022-08-25T08:58:22;5.40;;;4.87;;
2338;SDS011;1180;51.438;6.978;2022-08-25T09:00:52;5.10;;;4.23;;
2338;SDS011;1180;51.438;6.978;2022-08-25T09:03:34;7.90;;;4.67;;
2338;SDS011;1180;51.438;6.978;2022-08-25T09:06:46;5.83;;;5.33;;
2338;SDS011;1180;51.438;6.978;2022-08-25T09:09:03;5.60;;;5.00;;
2338;SDS011;1180;51.438;6.978;2022-08-25T09:17:09;7.23;;;3.97;;
2338;SDS011;1180;51.438;6.978;2022-08-25T09:30:05;5.27;;;4.87;;
2338;SDS011;1180;51.438;6.978;2022-08-25T09:32:34;5.23;;;4.77;;
2338;SDS011;1180;51.438;6.978;2022-08-25T09:35:05;5.37;;;4.87;;
2338;SDS011;1180;51.438;6.978;2022-08-25T09:37:33;5.90;;;4.83;;
2338;SDS011;1180;51.438;6.978;2022-08-25T09:39:59;6.13;;;5.13;;
2338;SDS011;1180;51.438;6.978;2022-08-25T09:43:17;5.50;;;4.70;;
2338;SDS011;1180;51.438;6.978;2022-08-25T09:45:17;5.17;;;4.43;;
2338;SDS011;1180;51.438;6.978;2022-08-25T09:47:56;4.60;;;4.20;;
2338;SDS011;1180;51.438;6.978;2022-08-25T09:50:21;5.33;;;4.37;;
2338;SDS011;1180;51.438;6.978;2022-08-25T09:52:46;4.70;;;4.30;;
2338;SDS011;1180;51.438;6.978;2022-08-25T09:57:45;6.23;;;4.80;;
2338;SDS011;1180;51.438;6.978;2022-08-25T10:03:31;5.40;;;4.40;;
2338;SDS011;1180;51.438;6.978;2022-08-25T10:08:33;4.20;;;3.90;;
2338;SDS011;1180;51.438;6.978;2022-08-25T10:11:06;6.50;;;5.00;;
2338;SDS011;1180;51.438;6.978;2022-08-25T10:13:43;9.43;;;4.60;;
2338;SDS011;1180;51.438;6.978;2022-08-25T10:18:36;5.43;;;4.53;;
2338;SDS011;1180;51.438;6.978;2022-08-25T10:21:03;4.83;;;4.43;;
2338;SDS011;1180;51.438;6.978;2022-08-25T10:23:32;5.77;;;5.27;;
2338;SDS011;1180;51.438;6.978;2022-08-25T10:26:01;5.37;;;4.97;;
2338;SDS011;1180;51.438;6.978;2022-08-25T10:31:05;5.13;;;4.73;;
2338;SDS011;1180;51.438;6.978;2022-08-25T10:33:57;8.10;;;5.00;;
2338;SDS011;1180;51.438;6.978;2022-08-25T10:36:48;5.50;;;5.10;;
2338;SDS011;1180;51.438;6.978;2022-08-25T10:39:41;5.50;;;4.73;;
2338;SDS011;1180;51.438;6.978;2022-08-25T10:44:38;6.10;;;4.77;;
2338;SDS011;1180;51.438;6.978;2022-08-25T10:50:31;5.27;;;4.80;;
2338;SDS011;1180;51.438;6.978;2022-08-25T11:04:36;5.07;;;4.67;;
2338;SDS011;1180;51.438;6.978;2022-08-25T11:09:58;5.23;;;4.80;;
2338;SDS011;1180;51.438;6.978;2022-08-25T11:12:40;4.90;;;4.50;;
2338;SDS011;1180;51.438;6.978;2022-08-25T11:15:57;5.57;;;5.00;;
2338;SDS011;1180;51.438;6.978;2022-08-25T11:18:08;5.23;;;4.83;;
2338;SDS011;1180;51.438;6.978;2022-08-25T11:20:43;5.30;;;4.90;;
2338;SDS011;1180;51.438;6.978;2022-08-25T11:26:10;6.33;;;4.93;;
2338;SDS011;1180;51.438;6.978;2022-08-25T11:31:14;5.77;;;4.97;;
2338;SDS011;1180;51.438;6.978;2022-08-25T11:33:43;6.13;;;4.90;;
2338;SDS011;1180;51.438;6.978;2022-08-25T11:44:46;4.80;;;4.37;;
2338;SDS011;1180;51.438;6.978;2022-08-25T11:50:04;5.70;;;5.20;;
2338;SDS011;1180;51.438;6.978;2022-08-25T12:01:02;5.10;;;4.70;;
2338;SDS011;1180;51.438;6.978;2022-08-25T12:06:16;4.83;;;4.43;;
2338;SDS011;1180;51.438;6.978;2022-08-25T12:21:46;4.30;;;3.90;;
2338;SDS011;1180;51.438;6.978;2022-08-25T12:24:12;4.10;;;3.67;;
2338;SDS011;1180;51.438;6.978;2022-08-25T12:32:02;6.30;;;4.63;;
2338;SDS011;1180;51.438;6.978;2022-08-25T12:37:06;4.23;;;3.93;;
2338;SDS011;1180;51.438;6.978;2022-08-25T12:39:36;3.80;;;3.43;;
2338;SDS011;1180;51.438;6.978;2022-08-25T12:42:18;4.30;;;4.00;;
2338;SDS011;1180;51.438;6.978;2022-08-25T12:45:07;5.40;;;4.07;;
2338;SDS011;1180;51.438;6.978;2022-08-25T12:47:40;4.40;;;3.83;;
2338;SDS011;1180;51.438;6.978;2022-08-25T12:52:53;3.70;;;3.40;;
2338;SDS011;1180;51.438;6.978;2022-08-25T12:55:24;4.90;;;3.63;;
2338;SDS011;1180;51.438;6.978;2022-08-25T12:57:55;4.40;;;3.90;;
2338;SDS011;1180;51.438;6.978;2022-08-25T13:00:28;4.17;;;3.87;;
2338;SDS011;1180;51.438;6.978;2022-08-25T13:11:32;4.30;;;4.00;;
2338;SDS011;1180;51.438;6.978;2022-08-25T13:14:15;4.07;;;3.67;;
2338;SDS011;1180;51.438;6.978;2022-08-25T13:16:55;3.77;;;3.53;;
2338;SDS011;1180;51.438;6.978;2022-08-25T13:19:22;4.60;;;4.20;;
2338;SDS011;1180;51.438;6.978;2022-08-25T13:21:49;4.77;;;4.37;;
2338;SDS011;1180;51.438;6.978;2022-08-25T13:24:26;3.70;;;3.43;;
2338;SDS011;1180;51.438;6.978;2022-08-25T13:26:55;4.67;;;3.43;;
2338;SDS011;1180;51.438;6.978;2022-08-25T13:29:26;4.60;;;4.20;;
2338;SDS011;1180;51.438;6.978;2022-08-25T13:34:22;4.17;;;3.63;;
2338;SDS011;1180;51.438;6.978;2022-08-25T13:36:50;4.27;;;3.87;;
2338;SDS011;1180;51.438;6.978;2022-08-25T13:39:35;4.43;;;4.13;;
2338;SDS011;1180;51.438;6.978;2022-08-25T13:42:02;5.30;;;3.80;;
2338;SDS011;1180;51.438;6.978;2022-08-25T13:44:31;3.77;;;3.47;;
2338;SDS011;1180;51.438;6.978;2022-08-25T13:47:07;3.60;;;3.30;;
2338;SDS011;1180;51.438;6.978;2022-08-25T13:49:38;3.40;;;3.10;;
2338;SDS011;1180;51.438;6.978;2022-08-25T13:52:06;3.87;;;3.57;;
2338;SDS011;1180;51.438;6.978;2022-08-25T13:54:38;6.77;;;4.37;;
2338;SDS011;1180;51.438;6.978;2022-08-25T13:59:47;3.83;;;3.53;;
2338;SDS011;1180;51.438;6.978;2022-08-25T14:02:25;4.83;;;3.30;;
2338;SDS011;1180;51.438;6.978;2022-08-25T14:05:14;4.20;;;3.20;;
2338;SDS011;1180;51.438;6.978;2022-08-25T14:07:51;4.17;;;3.87;;
2338;SDS011;1180;51.438;6.978;2022-08-25T14:10:38;4.30;;;3.90;;
2338;SDS011;1180;51.438;6.978;2022-08-25T14:13:29;3.93;;;3.50;;
2338;SDS011;1180;51.438;6.978;2022-08-25T14:16:05;4.10;;;3.70;;
2338;SDS011;1180;51.438;6.978;2022-08-25T14:18:33;3.70;;;3.40;;
2338;SDS011;1180;51.438;6.978;2022-08-25T14:20:59;4.73;;;4.33;;
2338;SDS011;1180;51.438;6.978;2022-08-25T14:23:34;3.97;;;3.57;;
2338;SDS011;1180;51.438;6.978;2022-08-25T14:26:01;4.10;;;3.70;;
2338;SDS011;1180;51.438;6.978;2022-08-25T14:28:27;4.90;;;4.20;;
2338;SDS011;1180;51.438;6.978;2022-08-25T14:30:58;4.33;;;3.80;;
2338;SDS011;1180;51.438;6.978;2022-08-25T14:33:29;4.40;;;3.97;;
2338;SDS011;1180;51.438;6.978;2022-08-25T14:35:58;4.07;;;3.77;;
2338;SDS011;1180;51.438;6.978;2022-08-25T14:38:26;3.90;;;3.50;;
2338;SDS011;1180;51.438;6.978;2022-08-25T14:40:52;4.60;;;4.20;;
2338;SDS011;1180;51.438;6.978;2022-08-25T14:43:18;4.70;;;4.30;;
2338;SDS011;1180;51.438;6.978;2022-08-25T14:45:44;4.73;;;4.20;;
2338;SDS011;1180;51.438;6.978;2022-08-25T14:48:23;3.97;;;3.67;;
2338;SDS011;1180;51.438;6.978;2022-08-25T14:50:52;4.97;;;4.60;;
2338;SDS011;1180;51.438;6.978;2022-08-25T14:53:19;3.50;;;3.00;;
2338;SDS011;1180;51.438;6.978;2022-08-25T14:55:45;4.07;;;3.77;;
2338;SDS011;1180;51.438;6.978;2022-08-25T14:58:11;4.17;;;3.83;;
2338;SDS011;1180;51.438;6.978;2022-08-25T15:00:38;5.33;;;3.43;;
2338;SDS011;1180;51.438;6.978;2022-08-25T15:03:06;8.60;;;3.57;;
2338;SDS011;1180;51.438;6.978;2022-08-25T15:05:34;3.80;;;3.50;;
2338;SDS011;1180;51.438;6.978;2022-08-25T15:07:59;4.10;;;3.80;;
2338;SDS011;1180;51.438;6.978;2022-08-25T15:10:43;3.80;;;3.50;;
2338;SDS011;1180;51.438;6.978;2022-08-25T15:13:09;4.00;;;3.27;;
2338;SDS011;1180;51.438;6.978;2022-08-25T15:15:36;3.90;;;3.60;;
2338;SDS011;1180;51.438;6.978;2022-08-25T15:18:04;4.70;;;4.20;;
2338;SDS011;1180;51.438;6.978;2022-08-25T15:20:29;3.63;;;3.33;;
2338;SDS011;1180;51.438;6.978;2022-08-25T15:22:55;3.83;;;3.43;;
2338;SDS011;1180;51.438;6.978;2022-08-25T15:25:20;3.77;;;3.47;;
2338;SDS011;1180;51.438;6.978;2022-08-25T15:27:46;3.40;;;3.20;;
2338;SDS011;1180;51.438;6.978;2022-08-25T15:30:12;5.47;;;4.27;;
2338;SDS011;1180;51.438;6.978;2022-08-25T15:32:39;4.13;;;3.83;;
2338;SDS011;1180;51.438;6.978;2022-08-25T15:35:05;4.07;;;3.77;;
2338;SDS011;1180;51.438;6.978;2022-08-25T15:37:31;6.93;;;3.37;;
2338;SDS011;1180;51.438;6.978;2022-08-25T15:39:56;5.03;;;3.93;;
2338;SDS011;1180;51.438;6.978;2022-08-25T15:42:22;4.50;;;4.10;;
2338;SDS011;1180;51.438;6.978;2022-08-25T15:44:49;4.27;;;3.70;;
2338;SDS011;1180;51.438;6.978;2022-08-25T15:47:14;5.97;;;3.30;;
2338;SDS011;1180;51.438;6.978;2022-08-25T15:49:40;3.50;;;3.20;;
2338;SDS011;1180;51.438;6.978;2022-08-25T15:52:07;3.77;;;3.47;;
2338;SDS011;1180;51.438;6.978;2022-08-25T15:54:33;5.27;;;4.00;;
2338;SDS011;1180;51.438;6.978;2022-08-25T15:56:59;3.70;;;3.40;;
2338;SDS011;1180;51.438;6.978;2022-08-25T15:59:24;4.33;;;3.93;;
2338;SDS011;1180;51.438;6.978;2022-08-25T16:01:50;5.03;;;3.87;;
2338;SDS011;1180;51.438;6.978;2022-08-25T16:04:20;3.80;;;3.30;;
2338;SDS011;1180;51.438;6.978;2022-08-25T16:06:47;4.40;;;4.03;;
2338;SDS011;1180;51.438;6.978;2022-08-25T16:09:13;3.67;;;3.30;;
2338;SDS011;1180;51.438;6.978;2022-08-25T16:11:39;3.70;;;3.40;;
2338;SDS011;1180;51.438;6.978;2022-08-25T16:14:07;4.00;;;3.70;;
2338;SDS011;1180;51.438;6.978;2022-08-25T16:16:32;3.80;;;3.27;;
2338;SDS011;1180;51.438;6.978;2022-08-25T16:18:58;6.00;;;3.73;;
2338;SDS011;1180;51.438;6.978;2022-08-25T16:21:25;3.50;;;3.20;;
2338;SDS011;1180;51.438;6.978;2022-08-25T16:23:52;3.80;;;3.50;;
2338;SDS011;1180;51.438;6.978;2022-08-25T16:26:20;3.53;;;3.23;;
2338;SDS011;1180;51.438;6.978;2022-08-25T16:28:46;5.03;;;3.63;;
2338;SDS011;1180;51.438;6.978;2022-08-25T16:31:12;4.70;;;4.27;;
2338;SDS011;1180;51.438;6.978;2022-08-25T16:33:39;4.37;;;3.60;;
2338;SDS011;1180;51.438;6.978;2022-08-25T16:36:12;4.20;;;3.40;;
2338;SDS011;1180;51.438;6.978;2022-08-25T16:38:42;4.50;;;4.20;;
2338;SDS011;1180;51.438;6.978;2022-08-25T16:41:09;5.43;;;4.87;;
2338;SDS011;1180;51.438;6.978;2022-08-25T16:43:37;5.33;;;4.17;;
2338;SDS011;1180;51.438;6.978;2022-08-25T16:46:04;4.50;;;4.00;;
2338;SDS011;1180;51.438;6.978;2022-08-25T16:48:32;6.43;;;4.07;;
2338;SDS011;1180;51.438;6.978;2022-08-25T16:50:59;4.77;;;4.37;;
2338;SDS011;1180;51.438;6.978;2022-08-25T16:53:24;4.43;;;4.03;;
2338;SDS011;1180;51.438;6.978;2022-08-25T16:56:09;4.90;;;4.50;;
2338;SDS011;1180;51.438;6.978;2022-08-25T16:58:35;6.93;;;4.80;;
2338;SDS011;1180;51.438;6.978;2022-08-25T17:01:10;4.57;;;4.17;;
2338;SDS011;1180;51.438;6.978;2022-08-25T17:03:39;5.07;;;4.63;;
2338;SDS011;1180;51.438;6.978;2022-08-25T17:06:06;7.50;;;4.40;;
2338;SDS011;1180;51.438;6.978;2022-08-25T17:08:32;5.23;;;4.10;;
2338;SDS011;1180;51.438;6.978;2022-08-25T17:11:02;5.00;;;4.50;;
2338;SDS011;1180;51.438;6.978;2022-08-25T17:13:30;5.00;;;4.17;;
2338;SDS011;1180;51.438;6.978;2022-08-25T17:15:55;6.47;;;4.27;;
2338;SDS011;1180;51.438;6.978;2022-08-25T17:18:22;4.57;;;4.27;;
2338;SDS011;1180;51.438;6.978;2022-08-25T17:20:47;6.23;;;4.13;;
2338;SDS011;1180;51.438;6.978;2022-08-25T17:23:22;5.93;;;4.50;;
2338;SDS011;1180;51.438;6.978;2022-08-25T17:25:48;4.60;;;4.30;;
2338;SDS011;1180;51.438;6.978;2022-08-25T17:28:13;4.60;;;4.10;;
2338;SDS011;1180;51.438;6.978;2022-08-25T17:30:39;4.87;;;4.47;;